Time;durP1;ratioP1;P1;durP2;ratioP2;P2;SDS_P1;SDS_P2;PMS_P1;PMS_P2;Temp;Humidity;BMP_temperature;BMP_pressure;BME280_temperature;BME280_humidity;BME280_pressure;Samples;Min_cycle;Max_cycle;Signal;HPM_P1;HPM_P2
2024/01/29 00:01:52;;;;;;;2.03;0.68;;;;;;;1.02;100.00;101918.44;10369401;28;20037;-72
2024/01/29 00:06:54;;;;;;;1.23;1.13;;;;;;;0.99;100.00;101910.72;10369024;28;20049;-73
2024/01/29 00:11:57;;;;;;;1.25;1.05;;;;;;;0.99;100.00;101915.28;10369888;28;20405;-72
2024/01/29 00:17:00;;;;;;;1.30;1.15;;;;;;;1.15;100.00;101905.13;10402822;28;20057;-73
2024/01/29 00:22:03;;;;;;;1.33;1.00;;;;;;;1.12;100.00;101905.50;10352975;28;20046;-72
2024/01/29 00:27:05;;;;;;;2.65;1.77;;;;;;;1.24;100.00;101903.16;10385456;28;20049;-72
2024/01/29 00:32:08;;;;;;;5.72;1.17;;;;;;;1.18;100.00;101883.09;10369414;28;20079;-72
2024/01/29 00:37:12;;;;;;;1.88;1.25;;;;;;;1.24;100.00;101886.94;10384490;28;20038;-72
2024/01/29 00:42:14;;;;;;;2.17;1.55;;;;;;;1.17;100.00;101881.44;10352563;28;20065;-73
2024/01/29 00:47:17;;;;;;;1.33;1.10;;;;;;;1.12;100.00;101875.75;10384765;28;20049;-72
2024/01/29 00:52:20;;;;;;;5.45;2.00;;;;;;;1.29;100.00;101878.25;10368410;28;20497;-72
2024/01/29 00:57:22;;;;;;;1.60;1.23;;;;;;;1.18;100.00;101879.56;10371938;28;20047;-71
2024/01/29 01:02:24;;;;;;;3.03;1.48;;;;;;;1.21;100.00;101876.47;10387148;28;20045;-70
2024/01/29 01:07:27;;;;;;;2.00;1.70;;;;;;;1.22;100.00;101889.00;10384340;28;20049;-71
2024/01/29 01:12:29;;;;;;;2.45;1.60;;;;;;;1.39;100.00;101881.47;10367995;28;20510;-71
2024/01/29 01:17:32;;;;;;;2.65;1.50;;;;;;;1.15;100.00;101883.47;10387835;28;20053;-71
2024/01/29 01:22:35;;;;;;;3.33;1.90;;;;;;;1.23;100.00;101863.63;10392491;28;20532;-71
2024/01/29 01:27:37;;;;;;;2.20;1.23;;;;;;;1.29;100.00;101857.44;10375527;28;20042;-72
2024/01/29 01:32:39;;;;;;;2.10;1.50;;;;;;;1.28;100.00;101852.25;10359967;28;20386;-72
2024/01/29 01:37:41;;;;;;;3.70;1.70;;;;;;;1.47;100.00;101838.94;10375612;28;20413;-72
2024/01/29 01:42:44;;;;;;;1.90;1.20;;;;;;;1.28;100.00;101830.59;10391921;28;20038;-72
2024/01/29 01:47:46;;;;;;;1.20;1.10;;;;;;;1.33;100.00;101826.28;10392039;28;20041;-72
2024/01/29 01:52:48;;;;;;;4.75;1.48;;;;;;;1.30;100.00;101815.88;10374274;28;20600;-72
2024/01/29 01:57:51;;;;;;;2.03;1.33;;;;;;;1.28;100.00;101801.69;10390987;28;20042;-72
2024/01/29 02:02:54;;;;;;;1.17;0.93;;;;;;;1.17;100.00;101800.31;10390759;28;20034;-71
2024/01/29 02:07:57;;;;;;;2.10;0.98;;;;;;;1.12;100.00;101761.38;10374270;28;20544;-72
2024/01/29 02:13:00;;;;;;;1.80;0.98;;;;;;;1.23;100.00;101769.00;10373949;28;20052;-72
2024/01/29 02:18:02;;;;;;;3.08;1.10;;;;;;;1.15;100.00;101759.13;10373955;28;20510;-72
2024/01/29 02:23:05;;;;;;;1.10;0.47;;;;;;;1.17;100.00;101756.22;10373635;28;20034;-72
2024/01/29 02:28:07;;;;;;;0.70;0.70;;;;;;;1.26;100.00;101749.69;10373310;28;20395;-72
2024/01/29 02:33:09;;;;;;;0.85;0.82;;;;;;;1.41;100.00;101726.13;10357360;28;20042;-72
2024/01/29 02:38:11;;;;;;;2.88;1.25;;;;;;;1.34;100.00;101740.59;10388946;28;20084;-72
2024/01/29 02:43:14;;;;;;;2.28;1.13;;;;;;;1.10;100.00;101749.94;10357065;28;20053;-72
2024/01/29 02:48:16;;;;;;;2.38;0.93;;;;;;;1.11;100.00;101743.50;10389827;28;20057;-72
2024/01/29 02:53:19;;;;;;;1.13;0.80;;;;;;;1.12;100.00;101746.00;10356255;28;20054;-72
2024/01/29 02:58:21;;;;;;;1.52;1.20;;;;;;;1.29;100.00;101738.47;10372422;28;20037;-72
2024/01/29 03:03:24;;;;;;;3.40;1.45;;;;;;;1.28;100.00;101722.44;10372416;28;20053;-72
2024/01/29 03:08:26;;;;;;;3.67;1.60;;;;;;;1.54;100.00;101722.69;10372053;28;20037;-72
2024/01/29 03:13:28;;;;;;;2.97;1.52;;;;;;;1.28;100.00;101698.13;10355556;28;20046;-72
2024/01/29 03:18:30;;;;;;;3.00;2.13;;;;;;;1.26;100.00;101690.19;10356243;28;20041;-72
2024/01/29 03:23:33;;;;;;;2.10;1.27;;;;;;;1.33;100.00;101687.53;10387654;28;20540;-72
2024/01/29 03:28:35;;;;;;;2.65;1.48;;;;;;;1.35;100.00;101694.44;10370852;28;20038;-72
2024/01/29 03:33:37;;;;;;;4.28;1.20;;;;;;;1.20;100.00;101683.69;10355020;28;20422;-72
2024/01/29 03:38:39;;;;;;;2.65;1.20;;;;;;;1.27;100.00;101664.00;10370694;28;20064;-70
2024/01/29 03:43:42;;;;;;;3.63;0.57;;;;;;;1.26;99.88;101657.75;10386034;28;20049;-71
2024/01/29 03:48:44;;;;;;;1.33;1.00;;;;;;;1.22;99.87;101666.47;10370556;28;20038;-71
2024/01/29 03:53:46;;;;;;;0.73;0.73;;;;;;;1.17;100.00;101657.03;10386323;28;20425;-70
2024/01/29 03:58:48;;;;;;;2.45;1.10;;;;;;;1.26;99.83;101638.84;10403870;28;20044;-71
2024/01/29 04:03:51;;;;;;;1.45;1.08;;;;;;;1.21;100.00;101641.25;10370366;28;20054;-70
2024/01/29 04:08:53;;;;;;;1.23;0.40;;;;;;;1.30;99.33;101644.69;10386147;28;20034;-72
2024/01/29 04:13:56;;;;;;;0.82;0.52;;;;;;;1.20;99.24;101639.59;10354148;28;20057;-72
2024/01/29 04:18:58;;;;;;;0.68;0.68;;;;;;;1.36;99.24;101633.91;10373025;28;20452;-72
2024/01/29 04:24:01;;;;;;;3.42;1.13;;;;;;;1.28;98.40;101634.06;10370890;28;20469;-71
2024/01/29 04:29:03;;;;;;;1.38;0.85;;;;;;;1.34;98.35;101625.16;10368862;28;20390;-72
2024/01/29 04:34:06;;;;;;;2.35;1.20;;;;;;;1.26;98.41;101603.69;10402105;28;20045;-72
2024/01/29 04:39:08;;;;;;;0.88;0.75;;;;;;;1.22;98.39;101596.19;10368173;28;20060;-72
2024/01/29 04:44:11;;;;;;;2.67;0.80;;;;;;;1.31;98.21;101606.63;10384232;28;20603;-72
2024/01/29 04:49:13;;;;;;;0.40;0.38;;;;;;;1.36;97.05;101600.63;10367990;28;20052;-72
2024/01/29 04:54:15;;;;;;;1.73;1.10;;;;;;;1.33;97.84;101582.94;10351715;28;20057;-70
2024/01/29 04:59:18;;;;;;;1.48;0.93;;;;;;;1.40;97.05;101573.00;10368233;28;20524;-71
2024/01/29 05:04:20;;;;;;;1.95;1.20;;;;;;;1.35;96.89;101580.84;10368579;28;20049;-70
2024/01/29 05:09:22;;;;;;;2.00;1.00;;;;;;;1.40;97.17;101573.00;10352308;28;20331;-71
2024/01/29 05:14:27;;;;;;;4.53;1.08;;;;;;;1.33;96.43;101550.47;10367689;28;20053;-70
2024/01/29 05:19:29;;;;;;;1.67;0.63;;;;;;;1.21;96.81;101552.06;10368027;28;20042;-70
2024/01/29 05:24:31;;;;;;;0.60;0.60;;;;;;;1.17;97.31;101545.38;10367588;28;20037;-71
2024/01/29 05:29:33;;;;;;;0.68;0.68;;;;;;;1.14;97.73;101562.00;10367358;28;20037;-71
2024/01/29 05:34:36;;;;;;;1.50;1.13;;;;;;;1.19;96.76;101540.59;10351549;28;20498;-72
2024/01/29 05:39:38;;;;;;;1.52;0.95;;;;;;;1.17;96.43;101535.41;10401298;28;20041;-72
2024/01/29 05:44:40;;;;;;;1.20;0.98;;;;;;;1.17;96.07;101531.84;10350696;28;20042;-72
2024/01/29 05:49:42;;;;;;;1.17;1.00;;;;;;;1.12;96.01;101537.88;10383859;28;20502;-72
2024/01/29 05:54:44;;;;;;;1.80;1.05;;;;;;;1.15;95.86;101542.03;10382612;28;20054;-72
2024/01/29 05:59:47;;;;;;;2.33;1.45;;;;;;;1.14;95.89;101537.66;10367537;28;20045;-72
2024/01/29 06:04:49;;;;;;;1.65;1.33;;;;;;;1.24;95.41;101537.34;10370816;28;20051;-72
2024/01/29 06:09:51;;;;;;;1.55;1.00;;;;;;;1.20;94.59;101529.59;10373796;28;20045;-72
2024/01/29 06:14:53;;;;;;;1.20;0.90;;;;;;;1.26;94.50;101546.91;10373729;28;20536;-72
2024/01/29 06:19:56;;;;;;;0.98;0.90;;;;;;;1.09;94.36;101534.72;10357660;28;20042;-71
2024/01/29 06:24:58;;;;;;;3.47;1.30;;;;;;;1.27;94.39;101529.66;10357212;28;20045;-71
2024/01/29 06:30:00;;;;;;;2.35;0.98;;;;;;;1.30;93.25;101529.25;10372883;28;20038;-72
2024/01/29 06:35:03;;;;;;;3.45;1.33;;;;;;;1.26;92.47;101519.03;10389446;28;20053;-72
2024/01/29 06:40:06;;;;;;;1.10;1.00;;;;;;;1.30;91.98;101515.72;10389286;28;20052;-72
2024/01/29 06:45:08;;;;;;;2.30;0.75;;;;;;;1.28;92.06;101507.00;10371917;28;20053;-72
2024/01/29 06:50:10;;;;;;;1.13;0.75;;;;;;;1.27;91.20;101508.03;10372179;28;20529;-72
2024/01/29 06:55:12;;;;;;;3.05;1.00;;;;;;;1.36;90.63;101501.41;10371849;28;20506;-72
2024/01/29 07:00:15;;;;;;;0.70;0.52;;;;;;;1.40;89.61;101481.06;10371798;28;20049;-72
2024/01/29 07:05:17;;;;;;;2.67;1.13;;;;;;;1.42;89.58;101488.97;10371502;28;20046;-72
2024/01/29 07:10:20;;;;;;;3.58;1.27;;;;;;;1.57;88.78;101486.13;10371917;28;20509;-72
2024/01/29 07:15:22;;;;;;;0.55;0.45;;;;;;;1.57;88.12;101486.13;10371577;28;20053;-72
2024/01/29 07:20:27;;;;;;;2.88;1.50;;;;;;;1.54;88.50;101489.22;10370932;28;20133;-72
2024/01/29 07:25:31;;;;;;;0.60;0.52;;;;;;;1.45;87.83;101484.00;10388602;28;20468;-72
2024/01/29 07:30:33;;;;;;;0.57;0.57;;;;;;;1.51;87.68;101472.38;10371525;28;20048;-71
2024/01/29 07:35:36;;;;;;;2.20;0.80;;;;;;;1.55;87.38;101469.25;10372413;28;20045;-71
2024/01/29 07:40:38;;;;;;;1.00;0.50;;;;;;;1.67;86.50;101470.34;10389394;28;20038;-70
2024/01/29 07:45:42;;;;;;;1.67;0.68;;;;;;;1.70;85.45;101472.66;10404479;28;20053;-70
2024/01/29 07:50:45;;;;;;;3.60;1.75;;;;;;;1.74;85.48;101466.66;10386056;28;20044;-71
2024/01/29 07:55:47;;;;;;;1.45;0.65;;;;;;;1.82;83.33;101457.50;10369622;28;20057;-72
2024/01/29 08:00:50;;;;;;;1.02;0.40;;;;;;;2.00;83.59;101465.06;10369715;28;20041;-71
2024/01/29 08:05:52;;;;;;;2.88;0.52;;;;;;;1.90;82.29;101460.00;10353229;28;20045;-71
2024/01/29 08:10:58;;;;;;;0.98;0.68;;;;;;;2.00;82.37;101463.19;10370499;28;20045;-71
2024/01/29 08:16:00;;;;;;;3.42;0.50;;;;;;;1.95;81.59;101464.84;10385077;28;20053;-70
2024/01/29 08:21:03;;;;;;;0.20;0.20;;;;;;;1.97;80.94;101466.28;10368993;28;20042;-71
2024/01/29 08:26:06;;;;;;;0.60;0.60;;;;;;;2.07;80.05;101457.75;10384714;28;20448;-71
2024/01/29 08:31:10;;;;;;;0.55;0.55;;;;;;;2.17;80.21;101460.91;10384970;28;20042;-71
2024/01/29 08:36:14;;;;;;;0.40;0.40;;;;;;;2.26;79.83;101456.16;10352846;28;20061;-71
2024/01/29 08:41:16;;;;;;;0.95;0.50;;;;;;;2.20;78.88;101448.84;10368930;28;20421;-72
2024/01/29 08:46:18;;;;;;;0.52;0.52;;;;;;;2.17;79.11;101439.25;10352609;28;20049;-72
2024/01/29 08:51:20;;;;;;;0.88;0.57;;;;;;;2.16;78.71;101439.47;10351846;28;20049;-72
2024/01/29 08:56:23;;;;;;;0.30;0.30;;;;;;;2.20;78.45;101443.44;10384479;28;20061;-72
2024/01/29 09:01:25;;;;;;;1.08;0.88;;;;;;;2.15;78.79;101435.94;10368155;28;20034;-72
2024/01/29 09:06:27;;;;;;;0.93;0.73;;;;;;;2.23;78.86;101424.06;10335947;28;20449;-71
2024/01/29 09:11:30;;;;;;;0.30;0.30;;;;;;;2.24;78.33;101423.84;10384368;28;20045;-70
2024/01/29 09:16:32;;;;;;;1.75;0.60;;;;;;;2.46;78.60;101427.22;10383473;28;20429;-70
2024/01/29 09:21:36;;;;;;;1.33;0.38;;;;;;;2.41;78.14;101435.94;10367869;28;20046;-71
2024/01/29 09:26:39;;;;;;;0.82;0.55;;;;;;;2.32;78.33;101426.38;10351560;28;20485;-70
2024/01/29 09:31:42;;;;;;;0.50;0.47;;;;;;;2.38;79.32;101413.84;10367636;28;20038;-70
2024/01/29 09:36:46;;;;;;;0.85;0.40;;;;;;;2.18;79.40;101418.44;10367748;28;20545;-71
2024/01/29 09:41:48;;;;;;;1.65;0.75;;;;;;;2.17;79.36;101403.22;10390571;28;20501;-71
2024/01/29 09:46:51;;;;;;;1.23;0.57;;;;;;;2.21;79.97;101390.94;10391039;28;20041;-71
2024/01/29 09:51:54;;;;;;;1.08;0.93;;;;;;;2.44;79.64;101391.38;10390944;28;20532;-71
2024/01/29 09:56:56;;;;;;;3.03;1.02;;;;;;;2.41;78.89;101383.63;10374782;28;20049;-71
2024/01/29 10:02:00;;;;;;;1.35;1.05;;;;;;;2.46;78.49;101389.28;10374575;28;20532;-71
2024/01/29 10:07:03;;;;;;;1.08;0.98;;;;;;;2.81;78.16;101364.63;10390138;28;20041;-71
2024/01/29 10:12:06;;;;;;;0.10;0.10;;;;;;;2.70;77.39;101364.22;10390946;28;20514;-71
2024/01/29 10:17:09;;;;;;;2.05;0.85;;;;;;;2.77;76.87;101369.63;10390466;28;20057;-71
2024/01/29 10:22:12;;;;;;;0.57;0.55;;;;;;;2.82;76.34;101372.56;10373294;28;20045;-71
2024/01/29 10:27:14;;;;;;;1.05;0.50;;;;;;;2.81;76.17;101365.47;10373151;28;20500;-70
2024/01/29 10:32:17;;;;;;;0.50;0.50;;;;;;;2.96;75.68;101357.94;10373747;28;20048;-72
2024/01/29 10:37:21;;;;;;;1.27;0.70;;;;;;;2.91;75.46;101351.47;10372934;28;20049;-72
2024/01/29 10:42:28;;;;;;;1.00;0.35;;;;;;;2.89;74.72;101350.84;10372854;28;20045;-72
2024/01/29 10:47:35;;;;;;;3.53;0.57;;;;;;;2.86;74.59;101340.44;10389431;28;20041;-72
2024/01/29 10:52:38;;;;;;;2.67;0.90;;;;;;;2.97;75.02;101326.22;10371539;28;20049;-72
2024/01/29 10:57:47;;;;;;;0.75;0.70;;;;;;;2.95;74.50;101314.75;10356514;28;20045;-73
2024/01/29 11:02:50;;;;;;;2.38;1.00;;;;;;;3.03;74.51;101312.63;10389438;28;20421;-72
2024/01/29 11:07:55;;;;;;;1.02;0.50;;;;;;;2.82;74.00;101315.63;10375291;28;20045;-72
2024/01/29 11:12:59;;;;;;;1.73;1.10;;;;;;;2.95;73.75;101307.47;10373535;28;20037;-72
2024/01/29 11:18:02;;;;;;;1.35;0.82;;;;;;;2.99;73.68;101307.88;10387826;28;20048;-73
2024/01/29 11:23:05;;;;;;;1.98;0.75;;;;;;;2.94;74.04;101304.94;10371020;28;20041;-73
2024/01/29 11:28:09;;;;;;;2.25;0.82;;;;;;;2.96;73.24;101300.16;10371106;28;20042;-73
2024/01/29 11:33:14;;;;;;;2.33;0.77;;;;;;;3.02;73.73;101310.13;10371104;28;20477;-73
2024/01/29 11:38:21;;;;;;;0.82;0.70;;;;;;;3.05;73.19;101298.03;10355264;28;20055;-73
2024/01/29 11:43:24;;;;;;;1.25;0.57;;;;;;;3.03;72.51;101281.97;10370314;28;20421;-72
2024/01/29 11:48:27;;;;;;;1.08;0.47;;;;;;;3.15;72.14;101274.84;10370493;28;20042;-72
2024/01/29 11:53:30;;;;;;;1.55;0.65;;;;;;;3.07;72.53;101288.63;10370226;28;20152;-72
2024/01/29 11:58:32;;;;;;;2.00;1.15;;;;;;;3.21;72.26;101284.81;10370042;28;20421;-72
2024/01/29 12:03:35;;;;;;;0.77;0.75;;;;;;;3.08;72.21;101274.03;10368975;28;20060;-72
2024/01/29 12:08:45;;;;;;;1.15;0.77;;;;;;;3.01;72.44;101267.81;10370596;28;20049;-72
2024/01/29 12:13:50;;;;;;;0.60;0.50;;;;;;;3.00;73.01;101245.28;10369904;28;20100;-72
2024/01/29 12:18:54;;;;;;;0.77;0.77;;;;;;;3.02;72.72;101256.75;10369054;28;20046;-72
2024/01/29 12:23:56;;;;;;;0.95;0.95;;;;;;;3.01;71.90;101249.66;10385863;28;20398;-72
2024/01/29 12:29:00;;;;;;;1.85;0.80;;;;;;;3.10;72.61;101242.09;10385568;28;20038;-72
2024/01/29 12:34:03;;;;;;;1.98;1.00;;;;;;;3.07;72.10;101250.66;10402172;28;20038;-72
2024/01/29 12:39:09;;;;;;;1.20;0.45;;;;;;;3.10;71.57;101250.22;10368637;28;20038;-72
2024/01/29 12:44:11;;;;;;;1.77;0.68;;;;;;;3.15;71.75;101263.16;10384757;28;20046;-72
2024/01/29 12:49:14;;;;;;;1.67;0.55;;;;;;;3.08;71.89;101262.34;10368359;28;20042;-72
2024/01/29 12:54:16;;;;;;;0.50;0.47;;;;;;;3.08;71.69;101257.75;10352244;28;20050;-72
2024/01/29 12:59:18;;;;;;;1.10;0.65;;;;;;;3.20;70.95;101255.19;10349626;28;20421;-70
2024/01/29 13:04:21;;;;;;;2.67;0.75;;;;;;;3.17;71.80;101244.78;10381143;28;20049;-71
2024/01/29 13:09:23;;;;;;;2.67;0.88;;;;;;;3.03;71.00;101244.03;10367725;28;20042;-70
2024/01/29 13:14:26;;;;;;;2.25;0.93;;;;;;;2.97;71.53;101247.59;10373371;28;20046;-69
2024/01/29 13:19:29;;;;;;;0.68;0.60;;;;;;;2.97;72.20;101240.31;10376502;28;20136;-70
2024/01/29 13:24:31;;;;;;;0.68;0.68;;;;;;;2.92;71.23;101241.97;10409429;28;20429;-70
2024/01/29 13:29:33;;;;;;;3.22;0.85;;;;;;;2.97;72.04;101250.31;10376938;28;20034;-72
2024/01/29 13:34:35;;;;;;;5.50;1.60;;;;;;;3.01;71.16;101238.81;10359209;28;20057;-72
2024/01/29 13:39:38;;;;;;;1.30;1.20;;;;;;;3.04;71.09;101251.09;10375599;28;20496;-72
2024/01/29 13:44:40;;;;;;;1.23;0.77;;;;;;;3.00;70.58;101250.72;10391719;28;20592;-72
2024/01/29 13:49:42;;;;;;;1.10;1.00;;;;;;;2.99;70.06;101253.66;10391520;28;20037;-72
2024/01/29 13:54:44;;;;;;;4.00;0.70;;;;;;;3.05;69.92;101250.06;10390816;28;20057;-72
2024/01/29 13:59:47;;;;;;;1.02;0.70;;;;;;;3.11;69.71;101248.34;10390997;28;20053;-72
2024/01/29 14:04:49;;;;;;;1.20;1.02;;;;;;;3.16;70.00;101233.09;10358407;28;20069;-72
2024/01/29 14:09:51;;;;;;;0.60;0.60;;;;;;;3.05;69.63;101260.06;10341814;28;20045;-72
2024/01/29 14:14:55;;;;;;;1.08;0.68;;;;;;;2.99;70.01;101248.22;10358413;28;20042;-72
2024/01/29 14:19:57;;;;;;;0.52;0.40;;;;;;;3.16;69.46;101253.97;10374715;28;20041;-72
2024/01/29 14:24:59;;;;;;;0.68;0.40;;;;;;;3.08;68.85;101259.63;10391090;28;20041;-73
2024/01/29 14:30:02;;;;;;;1.27;0.70;;;;;;;3.10;68.95;101262.94;10376084;28;20040;-72
2024/01/29 14:35:08;;;;;;;1.73;0.57;;;;;;;3.07;68.61;101275.06;10390190;28;20037;-72
2024/01/29 14:40:10;;;;;;;1.13;0.70;;;;;;;3.05;68.87;101277.16;10373411;28;20529;-72
2024/01/29 14:45:13;;;;;;;0.82;0.50;;;;;;;3.03;69.33;101276.56;10359016;28;20564;-73
2024/01/29 14:50:16;;;;;;;2.38;0.85;;;;;;;3.08;68.64;101298.41;10374781;28;20425;-71
2024/01/29 14:55:19;;;;;;;2.20;1.00;;;;;;;3.00;68.93;101298.69;10372975;28;20054;-71
2024/01/29 15:00:21;;;;;;;1.27;1.10;;;;;;;2.91;69.26;101295.38;10372189;28;20042;-71
2024/01/29 15:05:23;;;;;;;1.23;0.80;;;;;;;2.94;68.98;101294.09;10372139;28;20546;-71
2024/01/29 15:10:26;;;;;;;1.58;0.60;;;;;;;2.98;68.63;101284.50;10372068;28;20520;-71
2024/01/29 15:15:28;;;;;;;1.48;0.55;;;;;;;2.95;68.77;101287.63;10387933;28;20033;-71
2024/01/29 15:20:33;;;;;;;2.92;1.10;;;;;;;3.01;69.17;101303.06;10355340;28;20057;-71
2024/01/29 15:25:36;;;;;;;2.78;1.45;;;;;;;3.02;68.88;101297.41;10355773;28;20525;-71
2024/01/29 15:30:40;;;;;;;1.58;0.95;;;;;;;3.02;68.84;101293.88;10370985;28;20049;-71
2024/01/29 15:35:42;;;;;;;2.35;0.90;;;;;;;3.00;68.67;101295.97;10386569;28;20045;-71
2024/01/29 15:40:52;;;;;;;1.38;0.52;;;;;;;3.08;68.75;101305.72;10371162;28;20044;-71
2024/01/29 15:45:54;;;;;;;0.75;0.73;;;;;;;3.02;68.65;101297.41;10386908;28;20052;-72
2024/01/29 15:50:58;;;;;;;1.80;0.93;;;;;;;3.10;69.25;101312.59;10370338;28;20532;-72
2024/01/29 15:56:00;;;;;;;1.73;0.93;;;;;;;2.99;68.91;101310.56;10369968;28;20057;-72
2024/01/29 16:01:04;;;;;;;1.33;0.70;;;;;;;2.94;68.81;101316.63;10370163;28;20038;-72
2024/01/29 16:06:06;;;;;;;0.90;0.77;;;;;;;2.86;70.24;101316.03;10369910;28;20062;-72
2024/01/29 16:11:09;;;;;;;2.35;1.15;;;;;;;2.97;69.82;101334.34;10385494;28;20056;-72
2024/01/29 16:16:12;;;;;;;0.52;0.38;;;;;;;2.91;69.62;101335.19;10369761;28;20042;-71
2024/01/29 16:21:22;;;;;;;1.92;1.00;;;;;;;2.88;69.53;101332.91;10369447;28;20049;-72
2024/01/29 16:26:25;;;;;;;3.22;1.25;;;;;;;2.94;69.42;101340.19;10370396;28;20052;-71
2024/01/29 16:31:27;;;;;;;3.15;1.33;;;;;;;2.86;70.38;101319.59;10385673;28;20116;-71
2024/01/29 16:36:29;;;;;;;3.65;1.25;;;;;;;2.94;70.18;101337.47;10368821;28;20038;-71
2024/01/29 16:41:32;;;;;;;4.03;1.80;;;;;;;2.99;70.50;101346.66;10368691;28;20050;-71
2024/01/29 16:46:40;;;;;;;1.10;0.73;;;;;;;3.02;69.92;101345.38;10352528;28;20041;-71
2024/01/29 16:51:43;;;;;;;5.53;1.85;;;;;;;3.06;70.83;101346.63;10368395;28;20034;-71
2024/01/29 16:56:45;;;;;;;2.85;1.65;;;;;;;2.99;70.38;101357.50;10384169;28;20045;-71
2024/01/29 17:01:48;;;;;;;1.95;1.17;;;;;;;2.95;71.29;101352.69;10384572;28;20053;-70
2024/01/29 17:06:50;;;;;;;1.92;1.20;;;;;;;2.96;70.97;101379.63;10385073;28;20048;-70
2024/01/29 17:11:53;;;;;;;1.05;0.93;;;;;;;2.80;71.46;101377.34;10367638;28;20033;-71
2024/01/29 17:16:55;;;;;;;5.72;1.88;;;;;;;2.84;71.56;101380.47;10368698;28;20046;-70
2024/01/29 17:21:58;;;;;;;2.67;1.30;;;;;;;2.89;72.47;101395.03;10367636;28;20440;-70
2024/01/29 17:27:00;;;;;;;6.82;2.30;;;;;;;2.77;72.12;101394.03;10383755;28;20048;-70
2024/01/29 17:32:04;;;;;;;4.43;2.03;;;;;;;2.77;72.29;101385.06;10367761;28;20042;-70
2024/01/29 17:37:06;;;;;;;5.20;2.33;;;;;;;2.73;73.44;101390.06;10367519;28;20038;-70
2024/01/29 17:42:09;;;;;;;4.53;2.08;;;;;;;2.60;73.33;101396.38;10400540;28;20046;-71
2024/01/29 17:47:11;;;;;;;4.72;2.47;;;;;;;2.60;73.77;101418.03;10367350;28;20433;-72
2024/01/29 17:52:14;;;;;;;2.83;1.58;;;;;;;2.66;73.96;101410.94;10353878;28;20042;-71
2024/01/29 17:57:16;;;;;;;4.65;2.50;;;;;;;2.63;74.16;101411.38;10386202;28;20049;-72
2024/01/29 18:02:18;;;;;;;3.92;1.73;;;;;;;2.57;75.18;101404.88;10389706;28;20041;-71
2024/01/29 18:07:20;;;;;;;5.90;2.30;;;;;;;2.55;75.19;101414.28;10358227;28;20050;-72
2024/01/29 18:12:23;;;;;;;4.93;2.00;;;;;;;2.68;75.09;101436.78;10374760;28;20042;-72
2024/01/29 18:17:25;;;;;;;4.78;1.90;;;;;;;2.58;75.82;101435.53;10374077;28;20046;-71
2024/01/29 18:22:27;;;;;;;5.47;2.30;;;;;;;2.58;76.06;101440.94;10374163;28;20037;-72
2024/01/29 18:27:30;;;;;;;3.00;1.88;;;;;;;2.57;76.79;101431.97;10373582;28;20536;-73
2024/01/29 18:32:32;;;;;;;3.53;2.53;;;;;;;2.49;77.04;101448.47;10341699;28;20034;-71
2024/01/29 18:37:35;;;;;;;4.97;1.15;;;;;;;2.48;77.99;101440.53;10373479;28;20042;-72
2024/01/29 18:42:38;;;;;;;5.75;2.40;;;;;;;2.46;78.82;101459.72;10356721;28;20520;-71
2024/01/29 18:47:40;;;;;;;8.45;3.17;;;;;;;2.43;78.37;101465.56;10373306;28;20172;-71
2024/01/29 18:52:43;;;;;;;5.05;2.22;;;;;;;2.38;79.20;101468.03;10356571;28;20407;-71
2024/01/29 18:57:46;;;;;;;5.78;3.10;;;;;;;2.31;79.86;101480.72;10388430;28;20042;-72
2024/01/29 19:02:48;;;;;;;6.28;2.95;;;;;;;2.24;80.22;101482.59;10372135;28;20049;-71
2024/01/29 19:07:50;;;;;;;3.28;2.33;;;;;;;2.30;81.50;101481.78;10388733;28;20037;-70
2024/01/29 19:12:53;;;;;;;5.57;3.10;;;;;;;2.23;81.12;101499.88;10387922;28;20041;-73
2024/01/29 19:17:56;;;;;;;9.23;2.90;;;;;;;2.09;82.58;101507.16;10371594;28;20045;-73
2024/01/29 19:22:58;;;;;;;5.03;2.50;;;;;;;2.01;82.90;101489.19;10356003;28;20041;-72
2024/01/29 19:28:01;;;;;;;6.88;2.72;;;;;;;1.98;83.55;101478.78;10387738;28;20056;-72
2024/01/29 19:33:04;;;;;;;7.03;2.42;;;;;;;2.05;84.18;101482.34;10354291;28;20053;-72
2024/01/29 19:38:07;;;;;;;3.88;2.45;;;;;;;2.00;83.97;101492.94;10387332;28;20053;-72
2024/01/29 19:43:09;;;;;;;6.53;2.65;;;;;;;1.88;84.80;101491.03;10371009;28;20037;-72
2024/01/29 19:48:11;;;;;;;5.93;1.95;;;;;;;1.83;85.46;101510.59;10370450;28;20394;-72
2024/01/29 19:53:16;;;;;;;4.75;2.15;;;;;;;1.75;85.73;101510.78;10404059;28;20053;-71
2024/01/29 19:58:19;;;;;;;3.78;2.28;;;;;;;1.70;86.93;101522.19;10370649;28;20057;-71
2024/01/29 20:03:21;;;;;;;7.13;2.33;;;;;;;1.66;87.29;101522.78;10386272;28;20045;-71
2024/01/29 20:08:24;;;;;;;4.88;2.65;;;;;;;1.63;87.27;101545.69;10386226;28;20052;-71
2024/01/29 20:13:26;;;;;;;5.28;2.75;;;;;;;1.57;88.36;101556.47;10386411;28;20048;-71
2024/01/29 20:18:29;;;;;;;7.88;3.53;;;;;;;1.54;88.80;101556.84;10369916;28;20409;-71
2024/01/29 20:23:31;;;;;;;5.25;3.10;;;;;;;1.52;89.03;101555.16;10384934;28;20049;-71
2024/01/29 20:28:37;;;;;;;9.43;3.60;;;;;;;1.56;88.96;101563.72;10385048;28;20453;-71
2024/01/29 20:33:40;;;;;;;6.15;2.97;;;;;;;1.50;89.48;101569.94;10353097;28;20068;-71
2024/01/29 20:38:42;;;;;;;3.03;1.98;;;;;;;1.67;89.48;101578.56;10385161;28;20057;-71
2024/01/29 20:43:48;;;;;;;7.07;2.90;;;;;;;1.55;89.11;101590.97;10368550;28;20523;-70
2024/01/29 20:48:50;;;;;;;10.30;3.03;;;;;;;1.57;89.97;101589.75;10385034;28;20046;-70
2024/01/29 20:53:52;;;;;;;8.52;2.90;;;;;;;1.46;90.50;101593.00;10368549;28;20430;-71
2024/01/29 20:58:55;;;;;;;3.03;2.30;;;;;;;1.50;90.32;101586.16;10368483;28;20259;-71
2024/01/29 21:03:57;;;;;;;3.58;1.33;;;;;;;1.60;90.22;101615.56;10384093;28;20034;-71
2024/01/29 21:08:59;;;;;;;7.93;2.90;;;;;;;1.53;89.86;101623.63;10368459;28;20045;-72
2024/01/29 21:14:02;;;;;;;6.95;3.45;;;;;;;1.49;90.41;101636.72;10370123;28;20045;-72
2024/01/29 21:19:04;;;;;;;7.25;2.83;;;;;;;1.48;91.02;101639.63;10387792;28;20042;-71
2024/01/29 21:24:06;;;;;;;7.68;3.75;;;;;;;1.36;91.12;101614.13;10386696;28;20042;-71
2024/01/29 21:29:08;;;;;;;5.10;2.40;;;;;;;1.37;91.50;101619.34;10351912;28;20050;-71
2024/01/29 21:34:11;;;;;;;8.77;2.17;;;;;;;1.36;92.18;101652.84;10387065;28;20038;-71
2024/01/29 21:39:13;;;;;;;5.35;2.80;;;;;;;1.33;91.99;101655.94;10375332;28;20065;-71
2024/01/29 21:44:15;;;;;;;11.85;3.20;;;;;;;1.37;91.63;101668.03;10359499;28;20068;-71
2024/01/29 21:49:18;;;;;;;4.78;2.00;;;;;;;1.46;92.04;101683.09;10359608;28;20042;-72
2024/01/29 21:54:21;;;;;;;5.95;2.35;;;;;;;1.52;91.48;101689.56;10374502;28;20049;-72
2024/01/29 21:59:23;;;;;;;8.38;3.00;;;;;;;1.33;92.13;101701.91;10358632;28;20065;-72
2024/01/29 22:04:27;;;;;;;6.95;3.28;;;;;;;1.34;92.42;101695.47;10390928;28;20049;-72
2024/01/29 22:09:29;;;;;;;4.43;2.10;;;;;;;1.46;92.31;101701.19;10358496;28;20053;-72
2024/01/29 22:14:32;;;;;;;5.90;1.90;;;;;;;1.42;91.64;101708.03;10374313;28;20418;-72
2024/01/29 22:19:34;;;;;;;10.30;2.70;;;;;;;1.37;91.70;101708.59;10390753;28;20050;-72
2024/01/29 22:24:37;;;;;;;8.02;1.80;;;;;;;1.33;91.84;101711.88;10390268;28;20050;-72
2024/01/29 22:29:39;;;;;;;6.82;3.05;;;;;;;1.61;91.77;101725.47;10357940;28;20525;-72
2024/01/29 22:34:41;;;;;;;10.07;2.80;;;;;;;1.43;91.46;101745.69;10357320;28;20045;-72
2024/01/29 22:39:44;;;;;;;3.95;2.55;;;;;;;1.46;92.25;101750.72;10357239;28;20049;-72
2024/01/29 22:44:46;;;;;;;7.13;2.72;;;;;;;1.39;92.31;101771.47;10372539;28;20046;-72
2024/01/29 22:49:48;;;;;;;6.90;1.92;;;;;;;1.28;92.31;101768.41;10372709;28;20049;-71
2024/01/29 22:54:50;;;;;;;6.88;2.72;;;;;;;1.35;92.29;101780.97;10340559;28;20076;-71
2024/01/29 22:59:53;;;;;;;7.75;2.63;;;;;;;1.29;92.53;101789.84;10389156;28;20045;-71
2024/01/29 23:04:55;;;;;;;8.55;2.60;;;;;;;1.26;93.57;101792.13;10372217;28;20065;-71
2024/01/29 23:09:57;;;;;;;11.68;3.03;;;;;;;1.25;93.55;101793.97;10388115;28;20509;-71
2024/01/29 23:15:00;;;;;;;7.20;3.08;;;;;;;1.17;93.45;101789.50;10388485;28;20092;-71
2024/01/29 23:20:03;;;;;;;8.15;3.15;;;;;;;1.34;93.90;101798.22;10371801;28;20042;-72
2024/01/29 23:25:06;;;;;;;9.43;2.83;;;;;;;1.46;92.68;101810.22;10371420;28;20052;-72